sensor_id;sensor_type;location;lat;lon;timestamp;P1;durP1;ratioP1;P2;durP2;ratioP2
6420;SDS011;3243;50.958;7.012;2023-05-29T00:00:38;6.10;;;3.70;;
6420;SDS011;3243;50.958;7.012;2023-05-29T00:03:12;7.83;;;3.60;;
6420;SDS011;3243;50.958;7.012;2023-05-29T00:05:39;8.77;;;3.80;;
6420;SDS011;3243;50.958;7.012;2023-05-29T00:08:06;7.30;;;3.70;;
6420;SDS011;3243;50.958;7.012;2023-05-29T00:10:32;9.67;;;4.00;;
6420;SDS011;3243;50.958;7.012;2023-05-29T00:12:59;6.87;;;4.07;;
6420;SDS011;3243;50.958;7.012;2023-05-29T00:15:27;6.70;;;3.63;;
6420;SDS011;3243;50.958;7.012;2023-05-29T00:17:54;12.47;;;4.60;;
6420;SDS011;3243;50.958;7.012;2023-05-29T00:20:21;8.57;;;4.53;;
6420;SDS011;3243;50.958;7.012;2023-05-29T00:22:48;7.97;;;4.50;;
6420;SDS011;3243;50.958;7.012;2023-05-29T00:25:15;11.87;;;5.60;;
6420;SDS011;3243;50.958;7.012;2023-05-29T00:27:42;9.53;;;6.00;;
6420;SDS011;3243;50.958;7.012;2023-05-29T00:30:09;8.73;;;5.60;;
6420;SDS011;3243;50.958;7.012;2023-05-29T00:32:36;12.73;;;5.03;;
6420;SDS011;3243;50.958;7.012;2023-05-29T00:35:03;8.00;;;4.90;;
6420;SDS011;3243;50.958;7.012;2023-05-29T00:37:30;10.93;;;5.10;;
6420;SDS011;3243;50.958;7.012;2023-05-29T00:39:57;8.07;;;5.10;;
6420;SDS011;3243;50.958;7.012;2023-05-29T00:42:24;10.17;;;5.20;;
6420;SDS011;3243;50.958;7.012;2023-05-29T00:44:50;7.63;;;4.30;;
6420;SDS011;3243;50.958;7.012;2023-05-29T00:47:17;9.50;;;4.20;;
6420;SDS011;3243;50.958;7.012;2023-05-29T00:49:44;7.73;;;4.10;;
6420;SDS011;3243;50.958;7.012;2023-05-29T00:52:11;7.50;;;4.03;;
6420;SDS011;3243;50.958;7.012;2023-05-29T00:54:38;10.33;;;4.73;;
6420;SDS011;3243;50.958;7.012;2023-05-29T00:57:09;7.83;;;4.27;;
6420;SDS011;3243;50.958;7.012;2023-05-29T00:59:36;7.83;;;4.93;;
6420;SDS011;3243;50.958;7.012;2023-05-29T01:02:03;9.53;;;4.77;;
6420;SDS011;3243;50.958;7.012;2023-05-29T01:04:31;9.20;;;4.70;;
6420;SDS011;3243;50.958;7.012;2023-05-29T01:07:00;7.73;;;4.60;;
6420;SDS011;3243;50.958;7.012;2023-05-29T01:09:29;7.73;;;4.43;;
6420;SDS011;3243;50.958;7.012;2023-05-29T01:28:47;9.07;;;4.10;;
6420;SDS011;3243;50.958;7.012;2023-05-29T01:31:17;6.53;;;3.87;;
6420;SDS011;3243;50.958;7.012;2023-05-29T01:33:56;5.97;;;3.83;;
6420;SDS011;3243;50.958;7.012;2023-05-29T01:36:24;6.63;;;3.67;;
6420;SDS011;3243;50.958;7.012;2023-05-29T01:38:53;5.50;;;3.80;;
6420;SDS011;3243;50.958;7.012;2023-05-29T01:41:22;7.53;;;4.53;;
6420;SDS011;3243;50.958;7.012;2023-05-29T01:43:51;5.80;;;4.00;;
6420;SDS011;3243;50.958;7.012;2023-05-29T01:46:18;6.03;;;3.47;;
6420;SDS011;3243;50.958;7.012;2023-05-29T01:48:46;5.63;;;3.73;;
6420;SDS011;3243;50.958;7.012;2023-05-29T01:51:13;8.93;;;3.90;;
6420;SDS011;3243;50.958;7.012;2023-05-29T01:53:41;7.73;;;3.60;;
6420;SDS011;3243;50.958;7.012;2023-05-29T01:56:08;4.93;;;3.77;;
6420;SDS011;3243;50.958;7.012;2023-05-29T01:58:36;7.80;;;3.90;;
6420;SDS011;3243;50.958;7.012;2023-05-29T02:01:05;8.57;;;3.70;;
6420;SDS011;3243;50.958;7.012;2023-05-29T02:03:33;4.50;;;3.50;;
6420;SDS011;3243;50.958;7.012;2023-05-29T02:06:00;7.30;;;3.77;;
6420;SDS011;3243;50.958;7.012;2023-05-29T02:08:27;6.80;;;3.63;;
6420;SDS011;3243;50.958;7.012;2023-05-29T02:10:54;5.47;;;3.63;;
6420;SDS011;3243;50.958;7.012;2023-05-29T02:13:22;6.63;;;3.73;;
6420;SDS011;3243;50.958;7.012;2023-05-29T02:15:49;7.13;;;4.37;;
6420;SDS011;3243;50.958;7.012;2023-05-29T02:18:16;6.37;;;4.20;;
6420;SDS011;3243;50.958;7.012;2023-05-29T02:20:43;7.87;;;3.97;;
6420;SDS011;3243;50.958;7.012;2023-05-29T02:23:11;7.23;;;3.67;;
6420;SDS011;3243;50.958;7.012;2023-05-29T02:25:38;7.27;;;3.90;;
6420;SDS011;3243;50.958;7.012;2023-05-29T02:28:06;6.73;;;3.60;;
6420;SDS011;3243;50.958;7.012;2023-05-29T02:30:34;6.10;;;3.70;;
6420;SDS011;3243;50.958;7.012;2023-05-29T02:33:01;5.37;;;3.90;;
6420;SDS011;3243;50.958;7.012;2023-05-29T02:35:28;6.57;;;3.70;;
6420;SDS011;3243;50.958;7.012;2023-05-29T02:37:55;4.87;;;3.60;;
6420;SDS011;3243;50.958;7.012;2023-05-29T02:40:21;5.17;;;3.67;;
6420;SDS011;3243;50.958;7.012;2023-05-29T02:42:49;6.87;;;3.70;;
6420;SDS011;3243;50.958;7.012;2023-05-29T02:45:16;6.83;;;3.70;;
6420;SDS011;3243;50.958;7.012;2023-05-29T02:47:43;7.77;;;3.80;;
6420;SDS011;3243;50.958;7.012;2023-05-29T02:50:10;5.83;;;3.37;;
6420;SDS011;3243;50.958;7.012;2023-05-29T02:52:37;6.83;;;3.80;;
6420;SDS011;3243;50.958;7.012;2023-05-29T02:55:04;7.83;;;4.07;;
6420;SDS011;3243;50.958;7.012;2023-05-29T02:57:32;6.30;;;3.87;;
6420;SDS011;3243;50.958;7.012;2023-05-29T02:59:59;7.27;;;3.70;;
6420;SDS011;3243;50.958;7.012;2023-05-29T03:02:27;7.10;;;3.63;;
6420;SDS011;3243;50.958;7.012;2023-05-29T03:04:54;8.43;;;4.40;;
6420;SDS011;3243;50.958;7.012;2023-05-29T03:07:20;7.40;;;3.83;;
6420;SDS011;3243;50.958;7.012;2023-05-29T03:09:47;5.00;;;3.60;;
6420;SDS011;3243;50.958;7.012;2023-05-29T03:12:14;7.17;;;3.60;;
6420;SDS011;3243;50.958;7.012;2023-05-29T03:14:41;6.93;;;4.03;;
6420;SDS011;3243;50.958;7.012;2023-05-29T03:17:07;7.80;;;3.80;;
6420;SDS011;3243;50.958;7.012;2023-05-29T03:19:34;11.50;;;4.23;;
6420;SDS011;3243;50.958;7.012;2023-05-29T03:22:01;6.90;;;3.50;;
6420;SDS011;3243;50.958;7.012;2023-05-29T03:24:28;9.93;;;3.80;;
6420;SDS011;3243;50.958;7.012;2023-05-29T03:26:54;7.37;;;3.77;;
6420;SDS011;3243;50.958;7.012;2023-05-29T03:29:22;8.27;;;3.70;;
6420;SDS011;3243;50.958;7.012;2023-05-29T03:31:49;9.03;;;3.70;;
6420;SDS011;3243;50.958;7.012;2023-05-29T03:34:15;11.47;;;3.80;;
6420;SDS011;3243;50.958;7.012;2023-05-29T03:39:13;11.77;;;4.20;;
6420;SDS011;3243;50.958;7.012;2023-05-29T03:41:39;8.37;;;4.20;;
6420;SDS011;3243;50.958;7.012;2023-05-29T03:44:06;9.20;;;4.30;;
6420;SDS011;3243;50.958;7.012;2023-05-29T03:46:33;7.97;;;3.50;;
6420;SDS011;3243;50.958;7.012;2023-05-29T03:49:00;10.53;;;4.00;;
6420;SDS011;3243;50.958;7.012;2023-05-29T03:51:27;11.97;;;4.13;;
6420;SDS011;3243;50.958;7.012;2023-05-29T03:53:53;10.30;;;4.03;;
6420;SDS011;3243;50.958;7.012;2023-05-29T03:56:20;9.23;;;4.00;;
6420;SDS011;3243;50.958;7.012;2023-05-29T03:58:47;12.03;;;4.27;;
6420;SDS011;3243;50.958;7.012;2023-05-29T04:01:14;13.73;;;4.43;;
6420;SDS011;3243;50.958;7.012;2023-05-29T04:03:41;9.60;;;4.10;;
6420;SDS011;3243;50.958;7.012;2023-05-29T04:06:10;11.37;;;4.30;;
6420;SDS011;3243;50.958;7.012;2023-05-29T04:08:37;10.73;;;4.77;;
6420;SDS011;3243;50.958;7.012;2023-05-29T04:11:04;11.47;;;5.07;;
6420;SDS011;3243;50.958;7.012;2023-05-29T04:13:31;9.03;;;4.33;;
6420;SDS011;3243;50.958;7.012;2023-05-29T04:15:58;9.07;;;4.80;;
6420;SDS011;3243;50.958;7.012;2023-05-29T04:18:25;9.60;;;5.10;;
6420;SDS011;3243;50.958;7.012;2023-05-29T04:20:52;9.03;;;4.63;;
6420;SDS011;3243;50.958;7.012;2023-05-29T04:23:20;9.20;;;4.03;;
6420;SDS011;3243;50.958;7.012;2023-05-29T04:25:47;10.00;;;4.40;;
6420;SDS011;3243;50.958;7.012;2023-05-29T04:28:13;11.57;;;4.73;;
6420;SDS011;3243;50.958;7.012;2023-05-29T04:30:41;11.20;;;4.50;;
6420;SDS011;3243;50.958;7.012;2023-05-29T04:33:08;13.60;;;4.73;;
6420;SDS011;3243;50.958;7.012;2023-05-29T04:35:38;10.57;;;4.77;;
6420;SDS011;3243;50.958;7.012;2023-05-29T04:38:05;10.43;;;4.40;;
6420;SDS011;3243;50.958;7.012;2023-05-29T04:40:32;8.77;;;4.30;;
6420;SDS011;3243;50.958;7.012;2023-05-29T04:42:59;10.27;;;4.53;;
6420;SDS011;3243;50.958;7.012;2023-05-29T04:45:26;10.60;;;4.40;;
6420;SDS011;3243;50.958;7.012;2023-05-29T04:47:54;10.03;;;4.17;;
6420;SDS011;3243;50.958;7.012;2023-05-29T04:50:22;10.73;;;4.50;;
6420;SDS011;3243;50.958;7.012;2023-05-29T04:52:57;9.03;;;4.60;;
6420;SDS011;3243;50.958;7.012;2023-05-29T04:55:23;9.97;;;4.70;;
6420;SDS011;3243;50.958;7.012;2023-05-29T04:57:50;15.00;;;4.93;;
6420;SDS011;3243;50.958;7.012;2023-05-29T05:00:17;15.37;;;4.77;;
6420;SDS011;3243;50.958;7.012;2023-05-29T05:02:45;11.53;;;4.57;;
6420;SDS011;3243;50.958;7.012;2023-05-29T05:05:12;11.77;;;5.00;;
6420;SDS011;3243;50.958;7.012;2023-05-29T05:07:39;12.07;;;4.80;;
6420;SDS011;3243;50.958;7.012;2023-05-29T05:10:06;12.77;;;5.60;;
6420;SDS011;3243;50.958;7.012;2023-05-29T05:12:33;12.40;;;4.50;;
6420;SDS011;3243;50.958;7.012;2023-05-29T05:15:00;14.07;;;5.17;;
6420;SDS011;3243;50.958;7.012;2023-05-29T05:17:27;10.60;;;4.47;;
6420;SDS011;3243;50.958;7.012;2023-05-29T05:19:54;11.57;;;5.40;;
6420;SDS011;3243;50.958;7.012;2023-05-29T05:22:20;12.87;;;5.20;;
6420;SDS011;3243;50.958;7.012;2023-05-29T05:24:47;15.43;;;5.50;;
6420;SDS011;3243;50.958;7.012;2023-05-29T05:27:14;14.47;;;5.57;;
6420;SDS011;3243;50.958;7.012;2023-05-29T05:29:41;12.57;;;5.23;;
6420;SDS011;3243;50.958;7.012;2023-05-29T05:32:07;12.37;;;4.50;;
6420;SDS011;3243;50.958;7.012;2023-05-29T05:34:34;12.63;;;5.00;;
6420;SDS011;3243;50.958;7.012;2023-05-29T05:37:01;9.70;;;4.70;;
6420;SDS011;3243;50.958;7.012;2023-05-29T05:39:28;10.87;;;4.30;;
6420;SDS011;3243;50.958;7.012;2023-05-29T05:41:55;9.50;;;4.50;;
6420;SDS011;3243;50.958;7.012;2023-05-29T05:44:22;11.15;;;4.30;;
6420;SDS011;3243;50.958;7.012;2023-05-29T05:46:49;10.38;;;3.90;;
6420;SDS011;3243;50.958;7.012;2023-05-29T05:49:16;10.70;;;4.55;;
6420;SDS011;3243;50.958;7.012;2023-05-29T05:51:42;10.70;;;4.20;;
6420;SDS011;3243;50.958;7.012;2023-05-29T05:54:09;12.32;;;4.25;;
6420;SDS011;3243;50.958;7.012;2023-05-29T05:56:36;10.63;;;4.38;;
6420;SDS011;3243;50.958;7.012;2023-05-29T05:59:03;8.45;;;3.80;;
6420;SDS011;3243;50.958;7.012;2023-05-29T06:01:30;8.20;;;3.92;;
6420;SDS011;3243;50.958;7.012;2023-05-29T06:03:57;7.75;;;3.50;;
6420;SDS011;3243;50.958;7.012;2023-05-29T06:06:24;8.63;;;3.85;;
6420;SDS011;3243;50.958;7.012;2023-05-29T06:08:51;10.55;;;3.95;;
6420;SDS011;3243;50.958;7.012;2023-05-29T06:11:18;10.30;;;3.90;;
6420;SDS011;3243;50.958;7.012;2023-05-29T06:13:44;6.03;;;3.35;;
6420;SDS011;3243;50.958;7.012;2023-05-29T06:16:11;9.80;;;3.85;;
6420;SDS011;3243;50.958;7.012;2023-05-29T06:18:38;9.98;;;3.33;;
6420;SDS011;3243;50.958;7.012;2023-05-29T06:21:06;6.82;;;3.28;;
6420;SDS011;3243;50.958;7.012;2023-05-29T06:23:33;5.88;;;3.03;;
6420;SDS011;3243;50.958;7.012;2023-05-29T06:26:00;11.95;;;3.65;;
6420;SDS011;3243;50.958;7.012;2023-05-29T06:28:27;7.68;;;3.13;;
6420;SDS011;3243;50.958;7.012;2023-05-29T06:30:53;11.55;;;3.75;;
6420;SDS011;3243;50.958;7.012;2023-05-29T06:33:20;9.45;;;3.95;;
6420;SDS011;3243;50.958;7.012;2023-05-29T06:35:48;8.82;;;3.35;;
6420;SDS011;3243;50.958;7.012;2023-05-29T06:38:15;7.97;;;3.30;;
6420;SDS011;3243;50.958;7.012;2023-05-29T06:40:42;10.88;;;3.72;;
6420;SDS011;3243;50.958;7.012;2023-05-29T06:43:08;7.63;;;3.05;;
6420;SDS011;3243;50.958;7.012;2023-05-29T06:45:35;10.98;;;3.78;;
6420;SDS011;3243;50.958;7.012;2023-05-29T06:48:02;7.82;;;3.30;;
6420;SDS011;3243;50.958;7.012;2023-05-29T06:50:29;7.63;;;3.40;;
6420;SDS011;3243;50.958;7.012;2023-05-29T06:52:56;8.50;;;3.55;;
6420;SDS011;3243;50.958;7.012;2023-05-29T06:55:23;9.85;;;3.65;;
6420;SDS011;3243;50.958;7.012;2023-05-29T06:57:49;8.65;;;3.50;;
6420;SDS011;3243;50.958;7.012;2023-05-29T07:00:17;8.82;;;3.70;;
6420;SDS011;3243;50.958;7.012;2023-05-29T07:02:44;11.73;;;3.38;;
6420;SDS011;3243;50.958;7.012;2023-05-29T07:05:10;10.73;;;3.72;;
6420;SDS011;3243;50.958;7.012;2023-05-29T07:07:37;9.40;;;3.90;;
6420;SDS011;3243;50.958;7.012;2023-05-29T07:10:04;12.48;;;3.67;;
6420;SDS011;3243;50.958;7.012;2023-05-29T07:12:32;10.57;;;3.17;;
6420;SDS011;3243;50.958;7.012;2023-05-29T07:14:59;10.05;;;3.40;;
6420;SDS011;3243;50.958;7.012;2023-05-29T07:17:25;8.95;;;3.22;;
6420;SDS011;3243;50.958;7.012;2023-05-29T07:19:52;10.15;;;3.45;;
6420;SDS011;3243;50.958;7.012;2023-05-29T07:22:20;9.23;;;3.45;;
6420;SDS011;3243;50.958;7.012;2023-05-29T07:24:47;9.10;;;3.43;;
6420;SDS011;3243;50.958;7.012;2023-05-29T07:27:14;8.88;;;3.88;;
6420;SDS011;3243;50.958;7.012;2023-05-29T07:29:41;9.32;;;3.53;;
6420;SDS011;3243;50.958;7.012;2023-05-29T07:32:08;10.67;;;3.67;;
6420;SDS011;3243;50.958;7.012;2023-05-29T07:34:36;8.68;;;3.80;;
6420;SDS011;3243;50.958;7.012;2023-05-29T07:37:03;8.95;;;3.58;;
6420;SDS011;3243;50.958;7.012;2023-05-29T07:39:31;9.00;;;3.00;;
6420;SDS011;3243;50.958;7.012;2023-05-29T07:41:59;9.25;;;3.30;;
6420;SDS011;3243;50.958;7.012;2023-05-29T07:44:29;8.48;;;3.63;;
6420;SDS011;3243;50.958;7.012;2023-05-29T07:46:56;10.90;;;3.47;;
6420;SDS011;3243;50.958;7.012;2023-05-29T07:49:23;8.25;;;4.05;;
6420;SDS011;3243;50.958;7.012;2023-05-29T07:51:50;7.10;;;3.30;;
6420;SDS011;3243;50.958;7.012;2023-05-29T07:54:17;9.07;;;3.58;;
6420;SDS011;3243;50.958;7.012;2023-05-29T07:56:46;7.07;;;3.22;;
6420;SDS011;3243;50.958;7.012;2023-05-29T07:59:13;11.52;;;3.55;;
6420;SDS011;3243;50.958;7.012;2023-05-29T08:01:41;10.15;;;3.85;;
6420;SDS011;3243;50.958;7.012;2023-05-29T08:04:10;11.10;;;3.60;;
6420;SDS011;3243;50.958;7.012;2023-05-29T08:06:37;10.80;;;4.07;;
6420;SDS011;3243;50.958;7.012;2023-05-29T08:09:04;7.32;;;3.67;;
6420;SDS011;3243;50.958;7.012;2023-05-29T08:11:31;11.13;;;3.67;;
6420;SDS011;3243;50.958;7.012;2023-05-29T08:13:58;8.40;;;3.00;;
6420;SDS011;3243;50.958;7.012;2023-05-29T08:16:25;7.28;;;3.40;;
6420;SDS011;3243;50.958;7.012;2023-05-29T08:18:53;11.60;;;4.00;;
6420;SDS011;3243;50.958;7.012;2023-05-29T08:21:21;9.50;;;3.60;;
6420;SDS011;3243;50.958;7.012;2023-05-29T08:23:48;9.38;;;2.95;;
6420;SDS011;3243;50.958;7.012;2023-05-29T08:26:15;6.38;;;3.30;;
6420;SDS011;3243;50.958;7.012;2023-05-29T08:28:42;11.82;;;3.60;;
6420;SDS011;3243;50.958;7.012;2023-05-29T08:31:08;13.77;;;3.72;;
6420;SDS011;3243;50.958;7.012;2023-05-29T08:33:35;8.73;;;3.42;;
6420;SDS011;3243;50.958;7.012;2023-05-29T08:36:03;9.27;;;3.92;;
6420;SDS011;3243;50.958;7.012;2023-05-29T08:38:30;10.75;;;3.80;;
6420;SDS011;3243;50.958;7.012;2023-05-29T08:40:57;8.55;;;3.90;;
6420;SDS011;3243;50.958;7.012;2023-05-29T08:43:29;9.38;;;3.55;;
6420;SDS011;3243;50.958;7.012;2023-05-29T08:46:06;10.95;;;3.78;;
6420;SDS011;3243;50.958;7.012;2023-05-29T08:48:34;6.88;;;3.50;;
6420;SDS011;3243;50.958;7.012;2023-05-29T08:51:04;10.32;;;3.70;;
6420;SDS011;3243;50.958;7.012;2023-05-29T08:53:33;9.27;;;3.28;;
6420;SDS011;3243;50.958;7.012;2023-05-29T08:56:01;8.60;;;3.55;;
6420;SDS011;3243;50.958;7.012;2023-05-29T08:58:29;9.35;;;3.47;;
6420;SDS011;3243;50.958;7.012;2023-05-29T09:00:57;8.95;;;3.55;;
6420;SDS011;3243;50.958;7.012;2023-05-29T09:03:24;9.20;;;3.47;;
6420;SDS011;3243;50.958;7.012;2023-05-29T09:05:51;14.88;;;4.10;;
6420;SDS011;3243;50.958;7.012;2023-05-29T09:08:23;8.73;;;3.35;;
6420;SDS011;3243;50.958;7.012;2023-05-29T09:10:50;9.73;;;3.10;;
6420;SDS011;3243;50.958;7.012;2023-05-29T09:13:17;7.18;;;3.55;;
6420;SDS011;3243;50.958;7.012;2023-05-29T09:15:43;10.77;;;3.40;;
6420;SDS011;3243;50.958;7.012;2023-05-29T09:18:11;9.13;;;3.40;;
6420;SDS011;3243;50.958;7.012;2023-05-29T09:20:38;9.32;;;3.40;;
6420;SDS011;3243;50.958;7.012;2023-05-29T09:23:06;7.53;;;3.53;;
6420;SDS011;3243;50.958;7.012;2023-05-29T09:25:41;8.73;;;3.33;;
6420;SDS011;3243;50.958;7.012;2023-05-29T09:28:11;10.23;;;3.60;;
6420;SDS011;3243;50.958;7.012;2023-05-29T09:30:39;10.98;;;3.72;;
6420;SDS011;3243;50.958;7.012;2023-05-29T09:33:09;7.53;;;3.40;;
6420;SDS011;3243;50.958;7.012;2023-05-29T09:35:39;7.03;;;3.33;;
6420;SDS011;3243;50.958;7.012;2023-05-29T09:38:07;8.38;;;3.60;;
6420;SDS011;3243;50.958;7.012;2023-05-29T09:40:37;9.30;;;3.55;;
6420;SDS011;3243;50.958;7.012;2023-05-29T09:43:05;9.35;;;3.35;;
6420;SDS011;3243;50.958;7.012;2023-05-29T09:45:42;10.23;;;3.40;;
6420;SDS011;3243;50.958;7.012;2023-05-29T09:48:13;9.40;;;3.50;;
6420;SDS011;3243;50.958;7.012;2023-05-29T09:50:42;7.97;;;3.50;;
6420;SDS011;3243;50.958;7.012;2023-05-29T09:55:51;11.13;;;3.63;;
6420;SDS011;3243;50.958;7.012;2023-05-29T09:58:19;9.57;;;3.40;;
6420;SDS011;3243;50.958;7.012;2023-05-29T10:00:47;8.25;;;3.55;;
6420;SDS011;3243;50.958;7.012;2023-05-29T10:03:15;10.00;;;3.63;;
6420;SDS011;3243;50.958;7.012;2023-05-29T10:05:44;7.20;;;3.40;;
6420;SDS011;3243;50.958;7.012;2023-05-29T10:08:15;10.10;;;3.80;;
6420;SDS011;3243;50.958;7.012;2023-05-29T10:10:45;10.13;;;3.50;;
6420;SDS011;3243;50.958;7.012;2023-05-29T10:13:14;9.63;;;3.70;;
6420;SDS011;3243;50.958;7.012;2023-05-29T10:15:45;9.35;;;3.42;;
6420;SDS011;3243;50.958;7.012;2023-05-29T10:18:20;12.32;;;3.78;;
6420;SDS011;3243;50.958;7.012;2023-05-29T10:20:50;10.60;;;3.72;;
6420;SDS011;3243;50.958;7.012;2023-05-29T10:23:21;9.27;;;3.72;;
6420;SDS011;3243;50.958;7.012;2023-05-29T10:25:52;8.65;;;3.75;;
6420;SDS011;3243;50.958;7.012;2023-05-29T10:28:21;14.15;;;3.90;;
6420;SDS011;3243;50.958;7.012;2023-05-29T10:30:53;9.10;;;3.47;;
6420;SDS011;3243;50.958;7.012;2023-05-29T10:36:35;13.20;;;4.20;;
6420;SDS011;3243;50.958;7.012;2023-05-29T10:39:06;9.32;;;3.72;;
6420;SDS011;3243;50.958;7.012;2023-05-29T10:41:34;10.23;;;3.53;;
6420;SDS011;3243;50.958;7.012;2023-05-29T10:47:08;7.72;;;3.28;;
6420;SDS011;3243;50.958;7.012;2023-05-29T10:49:37;9.25;;;3.72;;
6420;SDS011;3243;50.958;7.012;2023-05-29T10:52:04;15.30;;;4.50;;
6420;SDS011;3243;50.958;7.012;2023-05-29T10:54:39;10.70;;;3.85;;
6420;SDS011;3243;50.958;7.012;2023-05-29T10:57:07;13.68;;;3.72;;
6420;SDS011;3243;50.958;7.012;2023-05-29T10:59:36;14.23;;;3.80;;
6420;SDS011;3243;50.958;7.012;2023-05-29T11:02:03;9.60;;;3.65;;
6420;SDS011;3243;50.958;7.012;2023-05-29T11:04:32;9.35;;;4.03;;
6420;SDS011;3243;50.958;7.012;2023-05-29T11:07:00;10.23;;;4.38;;
6420;SDS011;3243;50.958;7.012;2023-05-29T11:14:52;10.25;;;4.68;;
6420;SDS011;3243;50.958;7.012;2023-05-29T11:20:06;14.05;;;6.35;;
6420;SDS011;3243;50.958;7.012;2023-05-29T11:25:10;9.88;;;3.83;;
6420;SDS011;3243;50.958;7.012;2023-05-29T11:27:39;7.18;;;3.70;;
6420;SDS011;3243;50.958;7.012;2023-05-29T11:30:06;10.20;;;3.65;;
6420;SDS011;3243;50.958;7.012;2023-05-29T11:32:34;10.52;;;5.28;;
6420;SDS011;3243;50.958;7.012;2023-05-29T11:35:09;8.63;;;4.88;;
6420;SDS011;3243;50.958;7.012;2023-05-29T11:37:39;9.90;;;4.95;;
6420;SDS011;3243;50.958;7.012;2023-05-29T11:40:12;8.65;;;4.00;;
6420;SDS011;3243;50.958;7.012;2023-05-29T11:42:43;10.30;;;3.97;;
6420;SDS011;3243;50.958;7.012;2023-05-29T11:47:53;11.13;;;4.47;;
6420;SDS011;3243;50.958;7.012;2023-05-29T11:50:23;8.82;;;4.28;;
6420;SDS011;3243;50.958;7.012;2023-05-29T11:52:51;10.35;;;4.65;;
6420;SDS011;3243;50.958;7.012;2023-05-29T11:55:21;13.63;;;4.75;;
6420;SDS011;3243;50.958;7.012;2023-05-29T11:57:55;11.07;;;3.80;;
6420;SDS011;3243;50.958;7.012;2023-05-29T12:00:23;10.75;;;4.35;;
6420;SDS011;3243;50.958;7.012;2023-05-29T12:02:50;9.05;;;4.10;;
6420;SDS011;3243;50.958;7.012;2023-05-29T12:05:17;9.13;;;3.70;;
6420;SDS011;3243;50.958;7.012;2023-05-29T12:07:49;9.63;;;3.72;;
6420;SDS011;3243;50.958;7.012;2023-05-29T12:10:23;12.02;;;4.30;;
6420;SDS011;3243;50.958;7.012;2023-05-29T12:12:51;11.15;;;3.70;;
6420;SDS011;3243;50.958;7.012;2023-05-29T12:15:22;7.95;;;3.55;;
6420;SDS011;3243;50.958;7.012;2023-05-29T12:17:49;9.75;;;3.70;;
6420;SDS011;3243;50.958;7.012;2023-05-29T12:20:18;8.48;;;3.63;;
6420;SDS011;3243;50.958;7.012;2023-05-29T12:22:48;6.50;;;3.53;;
6420;SDS011;3243;50.958;7.012;2023-05-29T12:25:18;8.95;;;4.15;;
6420;SDS011;3243;50.958;7.012;2023-05-29T12:27:46;9.15;;;3.80;;
6420;SDS011;3243;50.958;7.012;2023-05-29T12:30:19;11.23;;;3.53;;
6420;SDS011;3243;50.958;7.012;2023-05-29T12:32:59;8.82;;;3.70;;
6420;SDS011;3243;50.958;7.012;2023-05-29T12:35:27;11.43;;;3.60;;
6420;SDS011;3243;50.958;7.012;2023-05-29T12:40:23;9.18;;;3.85;;
6420;SDS011;3243;50.958;7.012;2023-05-29T12:42:58;9.80;;;3.53;;
6420;SDS011;3243;50.958;7.012;2023-05-29T12:45:30;8.25;;;3.42;;
6420;SDS011;3243;50.958;7.012;2023-05-29T12:50:28;8.45;;;3.38;;
6420;SDS011;3243;50.958;7.012;2023-05-29T12:55:27;13.52;;;4.68;;
6420;SDS011;3243;50.958;7.012;2023-05-29T12:57:56;7.95;;;3.72;;
6420;SDS011;3243;50.958;7.012;2023-05-29T13:00:23;11.50;;;3.45;;
6420;SDS011;3243;50.958;7.012;2023-05-29T13:02:51;10.68;;;4.45;;
6420;SDS011;3243;50.958;7.012;2023-05-29T13:05:18;13.00;;;4.00;;
6420;SDS011;3243;50.958;7.012;2023-05-29T13:07:51;9.70;;;3.65;;
6420;SDS011;3243;50.958;7.012;2023-05-29T13:10:18;7.88;;;3.22;;
6420;SDS011;3243;50.958;7.012;2023-05-29T13:12:46;10.25;;;3.50;;
6420;SDS011;3243;50.958;7.012;2023-05-29T13:15:16;8.13;;;3.33;;
6420;SDS011;3243;50.958;7.012;2023-05-29T13:17:43;7.88;;;3.85;;
6420;SDS011;3243;50.958;7.012;2023-05-29T13:20:10;7.40;;;3.60;;
6420;SDS011;3243;50.958;7.012;2023-05-29T13:22:39;8.75;;;3.45;;
6420;SDS011;3243;50.958;7.012;2023-05-29T13:25:08;11.90;;;3.50;;
6420;SDS011;3243;50.958;7.012;2023-05-29T13:27:37;8.95;;;4.10;;
6420;SDS011;3243;50.958;7.012;2023-05-29T13:30:05;8.00;;;3.40;;
6420;SDS011;3243;50.958;7.012;2023-05-29T13:32:33;9.07;;;3.20;;
6420;SDS011;3243;50.958;7.012;2023-05-29T13:35:00;7.22;;;3.88;;
6420;SDS011;3243;50.958;7.012;2023-05-29T13:37:29;10.75;;;4.00;;
6420;SDS011;3243;50.958;7.012;2023-05-29T13:39:56;11.35;;;3.80;;
6420;SDS011;3243;50.958;7.012;2023-05-29T13:42:22;9.50;;;3.35;;
6420;SDS011;3243;50.958;7.012;2023-05-29T13:44:49;9.30;;;3.70;;
6420;SDS011;3243;50.958;7.012;2023-05-29T13:47:16;10.45;;;3.58;;
6420;SDS011;3243;50.958;7.012;2023-05-29T13:49:43;17.00;;;4.13;;
6420;SDS011;3243;50.958;7.012;2023-05-29T13:52:10;10.52;;;4.03;;
6420;SDS011;3243;50.958;7.012;2023-05-29T13:54:37;12.50;;;3.95;;
6420;SDS011;3243;50.958;7.012;2023-05-29T13:57:05;9.80;;;4.07;;
6420;SDS011;3243;50.958;7.012;2023-05-29T13:59:33;11.23;;;4.10;;
6420;SDS011;3243;50.958;7.012;2023-05-29T14:02:01;7.43;;;4.35;;
6420;SDS011;3243;50.958;7.012;2023-05-29T14:04:29;10.80;;;3.78;;
6420;SDS011;3243;50.958;7.012;2023-05-29T14:06:57;8.32;;;3.65;;
6420;SDS011;3243;50.958;7.012;2023-05-29T14:09:24;8.65;;;4.30;;
6420;SDS011;3243;50.958;7.012;2023-05-29T14:11:54;10.32;;;3.90;;
6420;SDS011;3243;50.958;7.012;2023-05-29T14:14:22;8.57;;;3.55;;
6420;SDS011;3243;50.958;7.012;2023-05-29T14:16:49;8.25;;;3.40;;
6420;SDS011;3243;50.958;7.012;2023-05-29T14:19:18;7.47;;;3.45;;
6420;SDS011;3243;50.958;7.012;2023-05-29T14:21:45;8.27;;;3.63;;
6420;SDS011;3243;50.958;7.012;2023-05-29T14:24:12;9.32;;;3.58;;
6420;SDS011;3243;50.958;7.012;2023-05-29T14:26:39;7.70;;;3.50;;
6420;SDS011;3243;50.958;7.012;2023-05-29T14:29:07;9.73;;;3.42;;
6420;SDS011;3243;50.958;7.012;2023-05-29T14:31:43;8.23;;;3.95;;
6420;SDS011;3243;50.958;7.012;2023-05-29T14:34:11;9.70;;;4.50;;
6420;SDS011;3243;50.958;7.012;2023-05-29T14:36:38;12.73;;;4.00;;
6420;SDS011;3243;50.958;7.012;2023-05-29T14:39:06;9.80;;;3.88;;
6420;SDS011;3243;50.958;7.012;2023-05-29T14:41:33;12.35;;;5.00;;
6420;SDS011;3243;50.958;7.012;2023-05-29T14:44:01;11.77;;;4.65;;
6420;SDS011;3243;50.958;7.012;2023-05-29T14:46:28;11.00;;;4.03;;
6420;SDS011;3243;50.958;7.012;2023-05-29T14:48:58;8.48;;;4.60;;
6420;SDS011;3243;50.958;7.012;2023-05-29T14:51:26;11.95;;;5.63;;
6420;SDS011;3243;50.958;7.012;2023-05-29T14:53:53;11.20;;;4.20;;
6420;SDS011;3243;50.958;7.012;2023-05-29T14:56:20;8.10;;;4.47;;
6420;SDS011;3243;50.958;7.012;2023-05-29T14:58:47;6.13;;;3.67;;
6420;SDS011;3243;50.958;7.012;2023-05-29T15:01:15;7.97;;;3.92;;
6420;SDS011;3243;50.958;7.012;2023-05-29T15:03:42;7.75;;;3.38;;
6420;SDS011;3243;50.958;7.012;2023-05-29T15:06:10;7.38;;;3.10;;
6420;SDS011;3243;50.958;7.012;2023-05-29T15:08:40;9.43;;;4.22;;
6420;SDS011;3243;50.958;7.012;2023-05-29T15:11:10;9.38;;;4.65;;
6420;SDS011;3243;50.958;7.012;2023-05-29T15:13:39;10.55;;;4.63;;
6420;SDS011;3243;50.958;7.012;2023-05-29T15:16:06;10.25;;;4.35;;
6420;SDS011;3243;50.958;7.012;2023-05-29T15:18:33;8.30;;;4.03;;
6420;SDS011;3243;50.958;7.012;2023-05-29T15:21:00;13.60;;;3.55;;
6420;SDS011;3243;50.958;7.012;2023-05-29T15:23:27;9.80;;;4.80;;
6420;SDS011;3243;50.958;7.012;2023-05-29T15:25:54;9.57;;;3.88;;
6420;SDS011;3243;50.958;7.012;2023-05-29T15:28:21;17.50;;;6.85;;
6420;SDS011;3243;50.958;7.012;2023-05-29T15:30:48;11.80;;;6.47;;
6420;SDS011;3243;50.958;7.012;2023-05-29T15:33:15;11.15;;;5.72;;
6420;SDS011;3243;50.958;7.012;2023-05-29T15:35:42;9.13;;;4.90;;
6420;SDS011;3243;50.958;7.012;2023-05-29T15:38:09;9.48;;;3.85;;
6420;SDS011;3243;50.958;7.012;2023-05-29T15:40:39;10.20;;;5.32;;
6420;SDS011;3243;50.958;7.012;2023-05-29T15:43:07;8.27;;;5.13;;
6420;SDS011;3243;50.958;7.012;2023-05-29T15:45:35;11.27;;;5.30;;
6420;SDS011;3243;50.958;7.012;2023-05-29T15:48:02;13.88;;;6.03;;
6420;SDS011;3243;50.958;7.012;2023-05-29T15:50:30;10.23;;;4.82;;
6420;SDS011;3243;50.958;7.012;2023-05-29T15:52:57;10.88;;;5.38;;
6420;SDS011;3243;50.958;7.012;2023-05-29T15:55:23;12.95;;;6.93;;
6420;SDS011;3243;50.958;7.012;2023-05-29T15:57:50;10.32;;;4.45;;
6420;SDS011;3243;50.958;7.012;2023-05-29T16:00:17;10.32;;;3.70;;
6420;SDS011;3243;50.958;7.012;2023-05-29T16:02:45;9.93;;;3.85;;